createdAt,value
2018-10-11T00:00:15.601Z,39.17
2018-10-11T00:02:45.525Z,38.10
2018-10-11T00:05:14.788Z,37.13
2018-10-11T00:07:44.160Z,35.73
2018-10-11T00:10:13.589Z,35.57
2018-10-11T00:12:43.034Z,35.63
2018-10-11T00:15:12.455Z,34.97
2018-10-11T00:17:41.671Z,35.40
2018-10-11T00:20:10.896Z,35.07
2018-10-11T00:22:40.093Z,35.03
2018-10-11T00:25:10.338Z,35.87
2018-10-11T00:27:39.580Z,36.50
2018-10-11T00:30:09.149Z,36.37
2018-10-11T00:32:39.135Z,38.10
2018-10-11T00:35:08.861Z,36.47
2018-10-11T00:37:38.108Z,36.70
2018-10-11T00:40:08.539Z,37.97
2018-10-11T00:42:37.834Z,37.23
2018-10-11T00:45:07.277Z,36.03
2018-10-11T00:47:36.708Z,35.10
2018-10-11T00:50:06.193Z,37.63
2018-10-11T00:52:35.504Z,38.30
2018-10-11T00:55:05.489Z,37.03
2018-10-11T00:57:34.751Z,37.00
2018-10-11T01:00:04.140Z,37.83
2018-10-11T01:02:33.494Z,37.30
2018-10-11T01:05:02.812Z,38.07
2018-10-11T01:07:32.956Z,39.33
2018-10-11T01:10:02.237Z,39.07
2018-10-11T01:12:31.416Z,40.90
2018-10-11T01:15:00.626Z,39.57
2018-10-11T01:17:29.860Z,39.17
2018-10-11T01:19:59.100Z,38.60
2018-10-11T01:22:28.514Z,39.20
2018-10-11T01:24:57.831Z,39.03
2018-10-11T01:27:27.069Z,37.97
2018-10-11T01:29:57.081Z,40.17
2018-10-11T01:32:26.867Z,39.27
2018-10-11T01:34:56.246Z,41.37
2018-10-11T01:37:26.125Z,40.57
2018-10-11T01:40:02.259Z,41.83
2018-10-11T01:42:31.606Z,41.03
2018-10-11T01:45:00.968Z,42.53
2018-10-11T01:47:30.319Z,42.10
2018-10-11T01:50:00.949Z,41.87
2018-10-11T01:52:31.076Z,42.47
2018-10-11T01:55:00.636Z,42.87
2018-10-11T01:57:29.993Z,43.53
2018-10-11T01:59:59.293Z,43.07
2018-10-11T02:02:28.499Z,42.13
2018-10-11T02:04:57.727Z,41.03
2018-10-11T02:07:26.976Z,42.83
2018-10-11T02:09:56.217Z,41.37
2018-10-11T02:12:25.485Z,42.43
2018-10-11T02:14:54.777Z,43.10
2018-10-11T02:17:24.816Z,42.80
2018-10-11T02:19:54.051Z,43.07
2018-10-11T02:22:23.301Z,42.70
2018-10-11T02:24:52.546Z,43.70
2018-10-11T02:27:22.740Z,43.90
2018-10-11T02:29:51.967Z,43.33
2018-10-11T02:32:21.332Z,41.77
2018-10-11T02:34:50.560Z,42.70
2018-10-11T02:37:20.500Z,42.17
2018-10-11T02:39:49.768Z,43.97
2018-10-11T02:42:19.058Z,45.33
2018-10-11T02:44:48.315Z,45.10
2018-10-11T02:47:18.000Z,44.90
2018-10-11T02:49:47.220Z,45.97
2018-10-11T02:52:16.778Z,43.23
2018-10-11T02:54:46.032Z,44.30
2018-10-11T02:57:26.386Z,45.03
2018-10-11T02:59:56.545Z,44.57
2018-10-11T03:02:26.966Z,43.27
2018-10-11T03:04:56.496Z,45.37
2018-10-11T03:07:27.100Z,44.70
2018-10-11T03:09:57.589Z,44.43
2018-10-11T03:12:26.828Z,44.57
2018-10-11T03:14:56.261Z,44.93
2018-10-11T03:17:25.589Z,43.47
2018-10-11T03:19:54.935Z,43.50
2018-10-11T03:22:24.164Z,44.17
2018-10-11T03:24:53.384Z,45.13
2018-10-11T03:27:22.600Z,45.60
2018-10-11T03:29:51.849Z,45.83
2018-10-11T03:32:21.071Z,44.80
2018-10-11T03:34:50.300Z,47.30
2018-10-11T03:37:20.230Z,46.07
2018-10-11T03:39:49.540Z,46.60
2018-10-11T03:42:18.964Z,45.73
2018-10-11T03:44:48.170Z,47.63
2018-10-11T03:47:17.440Z,45.33
2018-10-11T03:49:47.427Z,45.90
2018-10-11T03:52:16.800Z,46.80
2018-10-11T03:54:46.023Z,46.47
2018-10-11T03:57:15.350Z,46.80
2018-10-11T03:59:44.868Z,45.20
2018-10-11T04:02:14.184Z,44.97
2018-10-11T04:04:43.399Z,44.23
2018-10-11T04:07:12.776Z,45.30
2018-10-11T04:09:42.217Z,44.43
2018-10-11T04:12:11.469Z,43.43
2018-10-11T04:14:40.795Z,44.80
2018-10-11T04:17:11.243Z,45.67
2018-10-11T04:19:41.111Z,46.47
2018-10-11T04:22:11.090Z,45.50
2018-10-11T04:24:40.485Z,46.27
2018-10-11T04:27:10.116Z,44.63
2018-10-11T04:29:39.365Z,44.87
2018-10-11T04:32:08.868Z,43.90
2018-10-11T04:34:38.105Z,44.13
2018-10-11T04:37:07.964Z,43.20
2018-10-11T04:39:37.189Z,41.40
2018-10-11T04:42:07.124Z,43.50
2018-10-11T04:44:36.913Z,44.13
2018-10-11T04:47:06.934Z,43.53
2018-10-11T04:49:36.370Z,41.40
2018-10-11T04:52:05.815Z,44.00
2018-10-11T04:54:35.197Z,40.63
2018-10-11T04:57:04.520Z,42.60
2018-10-11T04:59:33.953Z,41.50
2018-10-11T05:02:03.233Z,42.47
2018-10-11T05:04:32.464Z,41.33
2018-10-11T05:07:01.735Z,40.70
2018-10-11T05:09:31.057Z,42.63
2018-10-11T05:12:00.671Z,40.70
2018-10-11T05:14:29.977Z,42.10
2018-10-11T05:16:59.255Z,41.77
2018-10-11T05:19:28.543Z,44.40
2018-10-11T05:21:58.509Z,42.33
2018-10-11T05:24:27.969Z,42.17
2018-10-11T05:26:57.312Z,42.73
2018-10-11T05:29:26.728Z,42.60
2018-10-11T05:31:56.732Z,43.10
2018-10-11T05:34:26.196Z,43.13
2018-10-11T05:36:55.403Z,43.83
2018-10-11T05:39:25.044Z,44.00
2018-10-11T05:41:54.549Z,44.00
2018-10-11T05:44:24.580Z,43.30
2018-10-11T05:46:53.932Z,46.43
2018-10-11T05:49:23.488Z,45.17
2018-10-11T05:51:53.013Z,44.57
2018-10-11T05:54:22.338Z,43.60
2018-10-11T05:56:52.525Z,44.50
2018-10-11T05:59:21.836Z,44.97
2018-10-11T06:01:51.096Z,45.57
2018-10-11T06:04:20.577Z,44.50
2018-10-11T06:06:50.164Z,45.03
2018-10-11T06:09:19.764Z,45.53
2018-10-11T06:11:49.462Z,43.70
2018-10-11T06:14:18.727Z,46.00
2018-10-11T06:16:48.242Z,45.03
2018-10-11T06:19:17.481Z,44.07
2018-10-11T06:21:46.787Z,44.50
2018-10-11T06:24:16.108Z,43.40
2018-10-11T06:26:46.220Z,43.07
2018-10-11T06:29:16.302Z,45.23
2018-10-11T06:31:46.347Z,42.73
2018-10-11T06:34:15.656Z,41.93
2018-10-11T06:36:45.162Z,40.40
2018-10-11T06:39:14.429Z,42.73
2018-10-11T06:41:43.815Z,42.23
2018-10-11T06:44:13.170Z,40.50
2018-10-11T06:46:42.664Z,40.27
2018-10-11T06:49:11.941Z,40.57
2018-10-11T06:51:41.320Z,41.37
2018-10-11T06:54:10.632Z,40.97
2018-10-11T06:56:39.847Z,41.07
2018-10-11T06:59:09.177Z,40.50
2018-10-11T07:01:38.468Z,41.80
2018-10-11T07:04:07.794Z,41.20
2018-10-11T07:06:37.187Z,39.83
2018-10-11T07:09:08.255Z,39.77
2018-10-11T07:11:37.499Z,38.40
2018-10-11T07:14:07.056Z,37.33
2018-10-11T07:16:36.172Z,39.70
2018-10-11T07:19:05.575Z,38.47
2018-10-11T07:21:34.856Z,36.87
2018-10-11T07:24:04.375Z,37.33
2018-10-11T07:26:33.886Z,38.00
2018-10-11T07:29:03.119Z,36.40
2018-10-11T07:31:32.385Z,37.77
2018-10-11T07:34:01.654Z,36.30
2018-10-11T07:36:30.896Z,34.90
2018-10-11T07:39:00.183Z,35.63
2018-10-11T07:41:29.504Z,35.40
2018-10-11T07:43:58.832Z,35.80
2018-10-11T07:46:28.075Z,34.50
2018-10-11T07:48:57.338Z,34.30
2018-10-11T07:51:26.555Z,34.93
2018-10-11T07:54:00.144Z,33.17
2018-10-11T07:56:30.235Z,33.00
2018-10-11T07:59:00.272Z,31.73
2018-10-11T08:01:30.449Z,31.87
2018-10-11T08:04:00.171Z,33.13
2018-10-11T08:06:29.724Z,32.07
2018-10-11T08:08:59.048Z,30.47
2018-10-11T08:11:28.292Z,29.53
2018-10-11T08:13:57.623Z,26.47
2018-10-11T08:16:27.235Z,26.00
2018-10-11T08:18:56.550Z,25.03
2018-10-11T08:21:25.887Z,23.47
2018-10-11T08:23:55.741Z,23.93
2018-10-11T08:26:25.387Z,23.97
2018-10-11T08:28:54.307Z,22.50
2018-10-11T08:31:23.550Z,22.57
2018-10-11T08:33:52.760Z,22.77
2018-10-11T08:36:22.134Z,23.03
2018-10-11T08:38:51.426Z,22.03
2018-10-11T08:41:21.001Z,21.33
2018-10-11T08:43:50.239Z,22.03
2018-10-11T08:46:19.464Z,21.57
2018-10-11T08:48:48.678Z,22.23
2018-10-11T08:51:18.066Z,22.13
2018-10-11T08:53:47.414Z,21.37
2018-10-11T08:56:16.897Z,22.53
2018-10-11T08:58:46.167Z,20.77
2018-10-11T09:01:15.472Z,21.47
2018-10-11T09:03:44.867Z,20.33
2018-10-11T09:06:14.597Z,20.03
2018-10-11T09:08:44.080Z,20.00
2018-10-11T09:11:13.632Z,20.33
2018-10-11T09:13:42.875Z,20.27
2018-10-11T09:16:12.197Z,20.20
2018-10-11T09:18:41.443Z,19.60
2018-10-11T09:21:10.707Z,20.50
2018-10-11T09:23:40.011Z,20.10
2018-10-11T09:26:09.275Z,19.07
2018-10-11T09:28:38.519Z,19.40
2018-10-11T09:31:07.817Z,19.43
2018-10-11T09:33:37.256Z,19.43
2018-10-11T09:36:06.536Z,18.87
2018-10-11T09:38:36.200Z,18.40
2018-10-11T09:41:05.476Z,18.87
2018-10-11T09:43:34.803Z,17.70
2018-10-11T09:46:04.060Z,17.92
2018-10-11T09:48:33.326Z,18.35
2018-10-11T09:51:02.715Z,18.60
2018-10-11T09:53:31.995Z,18.12
2018-10-11T09:56:01.456Z,17.92
2018-10-11T09:58:30.541Z,19.12
2018-10-11T10:01:05.113Z,17.87
2018-10-11T10:03:34.345Z,18.15
2018-10-11T10:06:03.691Z,17.55
2018-10-11T10:08:33.298Z,17.85
2018-10-11T10:11:02.537Z,17.57
2018-10-11T10:13:31.772Z,17.80
2018-10-11T10:16:01.061Z,17.37
2018-10-11T10:18:30.961Z,17.55
2018-10-11T10:21:00.288Z,17.60
2018-10-11T10:23:29.537Z,18.50
2018-10-11T10:25:58.780Z,17.35
2018-10-11T10:28:28.040Z,17.55
2018-10-11T10:30:57.296Z,16.15
2018-10-11T10:33:27.085Z,16.57
2018-10-11T10:35:56.285Z,17.05
2018-10-11T10:38:25.527Z,17.17
2018-10-11T10:40:54.776Z,16.37
2018-10-11T10:43:24.009Z,17.30
2018-10-11T10:45:53.251Z,16.95
2018-10-11T10:48:22.479Z,17.05
2018-10-11T10:50:51.861Z,16.55
2018-10-11T10:53:21.073Z,17.05
2018-10-11T10:55:50.362Z,16.42
2018-10-11T10:58:20.154Z,16.12
2018-10-11T11:00:49.503Z,16.15
2018-10-11T11:03:18.792Z,15.90
2018-10-11T11:05:48.098Z,15.55
2018-10-11T11:08:17.471Z,16.10
2018-10-11T11:10:46.733Z,15.35
2018-10-11T11:13:15.969Z,14.78
2018-10-11T11:15:45.213Z,15.60
2018-10-11T11:18:14.410Z,14.78
2018-10-11T11:20:43.629Z,13.75
2018-10-11T11:23:12.872Z,14.50
2018-10-11T11:25:42.119Z,14.03
2018-10-11T11:28:11.361Z,14.65
2018-10-11T11:30:41.403Z,14.33
2018-10-11T11:33:10.559Z,14.60
2018-10-11T11:35:39.796Z,15.10
2018-10-11T11:38:09.057Z,13.72
2018-10-11T11:40:38.321Z,13.93
2018-10-11T11:43:07.991Z,14.65
2018-10-11T11:45:37.337Z,14.33
2018-10-11T11:48:07.105Z,14.68
2018-10-11T11:50:36.427Z,14.43
2018-10-11T11:53:05.785Z,14.73
2018-10-11T11:55:35.065Z,14.83
2018-10-11T11:58:04.380Z,15.15
2018-10-11T12:00:34.112Z,14.03
2018-10-11T12:03:03.335Z,14.05
2018-10-11T12:05:32.565Z,14.38
2018-10-11T12:08:01.763Z,16.10
2018-10-11T12:10:31.061Z,14.47
2018-10-11T12:13:14.772Z,13.78
2018-10-11T12:15:45.056Z,13.28
2018-10-11T12:18:14.300Z,13.30
2018-10-11T12:20:43.568Z,12.50
2018-10-11T12:23:13.629Z,12.98
2018-10-11T12:25:42.835Z,13.03
2018-10-11T12:28:12.170Z,17.05
2018-10-11T12:30:41.445Z,13.72
2018-10-11T12:33:10.600Z,13.32
2018-10-11T12:35:39.809Z,13.78
2018-10-11T12:38:09.066Z,13.08
2018-10-11T12:40:38.315Z,13.08
2018-10-11T12:43:07.647Z,14.30
2018-10-11T12:45:37.701Z,13.32
2018-10-11T12:48:06.235Z,14.80
2018-10-11T12:50:35.678Z,13.48
2018-10-11T12:53:05.235Z,13.00
2018-10-11T12:55:35.102Z,13.20
2018-10-11T12:58:04.432Z,12.10
2018-10-11T13:00:33.737Z,12.07
2018-10-11T13:03:03.118Z,13.40
2018-10-11T13:05:32.332Z,12.07
2018-10-11T13:08:01.559Z,11.50
2018-10-11T13:10:30.787Z,10.87
2018-10-11T13:13:00.938Z,11.37
2018-10-11T13:15:29.548Z,9.93
2018-10-11T13:17:58.735Z,10.40
2018-10-11T13:20:28.133Z,10.43
2018-10-11T13:22:57.659Z,10.40
2018-10-11T13:25:26.856Z,9.43
2018-10-11T13:27:56.067Z,8.50
2018-10-11T13:30:25.368Z,8.27
2018-10-11T13:32:54.588Z,8.90
2018-10-11T13:35:23.954Z,8.63
2018-10-11T13:37:53.181Z,11.50
2018-10-11T13:40:22.506Z,13.03
2018-10-11T13:42:51.734Z,12.40
2018-10-11T13:45:20.996Z,13.30
2018-10-11T13:47:50.234Z,13.80
2018-10-11T13:50:19.472Z,13.60
2018-10-11T13:52:48.745Z,13.80
2018-10-11T13:55:18.069Z,13.87
2018-10-11T13:57:47.292Z,14.33
2018-10-11T14:00:16.699Z,13.90
2018-10-11T14:02:46.128Z,13.33
2018-10-11T14:05:15.367Z,15.97
2018-10-11T14:07:44.604Z,14.17
2018-10-11T14:10:13.842Z,13.80
2018-10-11T14:12:43.076Z,13.33
2018-10-11T14:15:12.424Z,12.83
2018-10-11T14:17:41.805Z,13.27
2018-10-11T14:20:11.000Z,13.97
2018-10-11T14:22:40.240Z,13.87
2018-10-11T14:25:09.471Z,13.57
2018-10-11T14:27:38.745Z,13.97
2018-10-11T14:30:07.999Z,14.33
2018-10-11T14:32:37.392Z,14.83
2018-10-11T14:35:07.005Z,14.40
2018-10-11T14:37:36.221Z,15.67
2018-10-11T14:40:05.688Z,15.63
2018-10-11T14:42:34.937Z,15.50
2018-10-11T14:45:04.268Z,15.77
2018-10-11T14:47:33.511Z,16.67
2018-10-11T14:50:02.744Z,15.77
2018-10-11T14:52:31.958Z,14.73
2018-10-11T14:55:01.299Z,14.77
2018-10-11T14:57:30.538Z,13.97
2018-10-11T14:59:59.790Z,13.63
2018-10-11T15:02:29.020Z,13.60
2018-10-11T15:04:58.256Z,14.33
2018-10-11T15:07:27.588Z,14.77
2018-10-11T15:09:56.907Z,14.60
2018-10-11T15:12:26.785Z,13.13
2018-10-11T15:14:56.112Z,13.37
2018-10-11T15:17:25.371Z,11.37
2018-10-11T15:19:54.603Z,11.70
2018-10-11T15:22:23.828Z,11.70
2018-10-11T15:24:53.077Z,11.43
2018-10-11T15:27:22.651Z,12.17
2018-10-11T15:29:53.053Z,11.73
2018-10-11T15:32:22.340Z,12.00
2018-10-11T15:34:51.555Z,12.87
2018-10-11T15:37:20.835Z,12.73
2018-10-11T15:39:50.057Z,13.50
2018-10-11T15:42:19.529Z,14.33
2018-10-11T15:44:48.776Z,15.80
2018-10-11T15:47:18.098Z,15.17
2018-10-11T15:49:48.215Z,14.53
2018-10-11T15:52:17.479Z,13.57
2018-10-11T15:54:46.769Z,13.37
2018-10-11T15:57:16.004Z,12.77
2018-10-11T15:59:45.284Z,12.80
2018-10-11T16:02:14.560Z,12.47
2018-10-11T16:04:43.806Z,13.17
2018-10-11T16:07:13.108Z,13.80
2018-10-11T16:09:42.371Z,13.40
2018-10-11T16:12:11.612Z,12.77
2018-10-11T16:14:40.892Z,13.30
2018-10-11T16:17:10.185Z,14.07
2018-10-11T16:19:39.436Z,13.17
2018-10-11T16:22:08.782Z,13.70
2018-10-11T16:24:38.067Z,14.40
2018-10-11T16:27:07.270Z,13.73
2018-10-11T16:29:36.508Z,13.73
2018-10-11T16:32:05.799Z,12.93
2018-10-11T16:34:35.017Z,14.07
2018-10-11T16:37:04.353Z,15.83
2018-10-11T16:39:33.612Z,15.00
2018-10-11T16:42:03.164Z,14.80
2018-10-11T16:44:32.425Z,15.40
2018-10-11T16:47:01.668Z,15.83
2018-10-11T16:49:31.217Z,15.57
2018-10-11T16:52:00.473Z,16.20
2018-10-11T16:54:29.696Z,16.43
2018-10-11T16:56:58.929Z,16.90
2018-10-11T16:59:28.208Z,16.80
2018-10-11T17:01:57.496Z,17.30
2018-10-11T17:04:26.985Z,17.80
2018-10-11T17:06:57.047Z,16.80
2018-10-11T17:09:26.388Z,16.83
2018-10-11T17:11:55.822Z,16.80
2018-10-11T17:14:25.066Z,16.10
2018-10-11T17:16:54.324Z,16.07
2018-10-11T17:19:23.620Z,16.77
2018-10-11T17:21:53.011Z,16.13
2018-10-11T17:24:22.276Z,16.17
2018-10-11T17:26:51.501Z,16.13
2018-10-11T17:29:20.857Z,15.97
2018-10-11T17:31:50.976Z,17.10
2018-10-11T17:34:20.307Z,17.63
2018-10-11T17:36:49.583Z,17.87
2018-10-11T17:39:19.464Z,17.47
2018-10-11T17:41:49.001Z,16.83
2018-10-11T17:44:18.284Z,19.17
2018-10-11T17:46:47.801Z,18.27
2018-10-11T17:49:17.088Z,18.83
2018-10-11T17:51:46.317Z,19.57
2018-10-11T17:54:15.601Z,19.50
2018-10-11T17:56:45.478Z,19.67
2018-10-11T17:59:14.809Z,18.13
2018-10-11T18:01:45.415Z,20.67
2018-10-11T18:04:14.856Z,19.47
2018-10-11T18:06:44.243Z,20.40
2018-10-11T18:09:13.486Z,20.33
2018-10-11T18:11:42.962Z,20.30
2018-10-11T18:14:12.720Z,21.53
2018-10-11T18:16:42.048Z,21.50
2018-10-11T18:19:11.377Z,21.00
2018-10-11T18:21:40.816Z,21.33
2018-10-11T18:24:10.073Z,22.13
2018-10-11T18:26:39.522Z,22.50
2018-10-11T18:29:08.905Z,23.43
2018-10-11T18:31:38.132Z,24.97
2018-10-11T18:34:07.697Z,26.10
2018-10-11T18:36:37.323Z,27.50
2018-10-11T18:39:10.986Z,26.90
2018-10-11T18:41:40.805Z,25.70
2018-10-11T18:44:10.460Z,24.50
2018-10-11T18:46:39.919Z,24.30
2018-10-11T18:49:09.912Z,23.33
2018-10-11T18:51:39.136Z,22.27
2018-10-11T18:54:08.847Z,22.40
2018-10-11T18:56:38.152Z,22.93
2018-10-11T18:59:08.249Z,22.77
2018-10-11T19:01:37.583Z,23.03
2018-10-11T19:04:06.817Z,21.87
2018-10-11T19:06:36.154Z,21.77
2018-10-11T19:09:07.203Z,20.73
2018-10-11T19:11:36.501Z,19.63
2018-10-11T19:14:05.789Z,19.90
2018-10-11T19:16:36.011Z,19.17
2018-10-11T19:19:06.168Z,19.27
2018-10-11T19:21:35.476Z,19.53
2018-10-11T19:24:05.407Z,18.67
2018-10-11T19:26:34.892Z,19.30
2018-10-11T19:29:04.171Z,19.40
2018-10-11T19:31:34.608Z,19.27
2018-10-11T19:34:03.884Z,17.47
2018-10-11T19:36:33.127Z,18.03
2018-10-11T19:39:03.049Z,17.80
2018-10-11T19:41:32.618Z,17.97
2018-10-11T19:44:02.036Z,17.23
2018-10-11T19:46:31.310Z,17.70
2018-10-11T19:49:00.593Z,17.77
2018-10-11T19:51:29.816Z,15.33
2018-10-11T19:53:59.088Z,17.37
2018-10-11T19:56:28.308Z,18.23
2018-10-11T19:58:57.550Z,17.43
2018-10-11T20:01:26.855Z,17.67
2018-10-11T20:03:56.114Z,17.63
2018-10-11T20:06:25.773Z,16.50
2018-10-11T20:08:55.044Z,18.20
2018-10-11T20:11:24.312Z,17.70
2018-10-11T20:13:53.528Z,17.87
2018-10-11T20:16:22.852Z,17.63
2018-10-11T20:18:52.117Z,18.83
2018-10-11T20:21:21.374Z,18.37
2018-10-11T20:23:51.592Z,16.70
2018-10-11T20:26:20.865Z,17.73
2018-10-11T20:28:50.129Z,18.07
2018-10-11T20:31:19.376Z,18.80
2018-10-11T20:33:49.376Z,17.43
2018-10-11T20:36:18.648Z,18.00
2018-10-11T20:38:48.716Z,18.30
2018-10-11T20:41:18.052Z,19.07
2018-10-11T20:43:47.518Z,18.60
2018-10-11T20:46:16.672Z,19.50
2018-10-11T20:48:45.889Z,18.53
2018-10-11T20:51:15.262Z,18.90
2018-10-11T20:53:45.466Z,19.10
2018-10-11T20:56:21.479Z,19.20
2018-10-11T20:58:50.762Z,17.97
2018-10-11T21:01:20.051Z,19.80
2018-10-11T21:03:49.399Z,18.17
2018-10-11T21:06:18.840Z,18.27
2018-10-11T21:08:48.061Z,18.90
2018-10-11T21:11:17.816Z,19.03
2018-10-11T21:13:47.321Z,19.10
2018-10-11T21:16:17.550Z,19.33
2018-10-11T21:18:46.913Z,18.47
2018-10-11T21:21:16.153Z,18.50
2018-10-11T21:23:45.646Z,19.83
2018-10-11T21:26:14.911Z,18.57
2018-10-11T21:28:44.146Z,18.60
2018-10-11T21:31:13.452Z,18.50
2018-10-11T21:33:42.873Z,20.03
2018-10-11T21:36:12.116Z,18.97
2018-10-11T21:38:41.332Z,19.67
2018-10-11T21:41:10.764Z,19.77
2018-10-11T21:43:40.301Z,19.93
2018-10-11T21:46:09.658Z,19.03
2018-10-11T21:48:38.904Z,19.47
2018-10-11T21:51:08.141Z,19.67
2018-10-11T21:53:37.469Z,20.50
2018-10-11T21:56:06.740Z,19.40
2018-10-11T21:58:35.979Z,18.27
2018-10-11T22:01:10.640Z,18.63
2018-10-11T22:03:40.401Z,19.37
2018-10-11T22:06:09.656Z,18.70
2018-10-11T22:08:39.685Z,18.50
2018-10-11T22:11:09.593Z,19.07
2018-10-11T22:13:39.448Z,18.67
2018-10-11T22:16:09.417Z,19.17
2018-10-11T22:18:39.307Z,19.40
2018-10-11T22:21:09.542Z,17.93
2018-10-11T22:23:39.859Z,18.73
2018-10-11T22:26:09.681Z,18.53
2018-10-11T22:28:39.587Z,19.93
2018-10-11T22:31:10.669Z,18.60
2018-10-11T22:33:40.363Z,19.10
2018-10-11T22:36:10.813Z,18.40
2018-10-11T22:38:40.509Z,19.00
2018-10-11T22:41:10.964Z,18.67
2018-10-11T22:43:40.732Z,18.47
2018-10-11T22:46:10.248Z,18.20
2018-10-11T22:48:39.844Z,17.97
2018-10-11T22:51:09.360Z,18.27
2018-10-11T22:53:38.720Z,18.47
2018-10-11T22:56:07.963Z,18.20
2018-10-11T22:58:37.371Z,18.23
2018-10-11T23:01:07.016Z,18.43
2018-10-11T23:03:36.265Z,18.90
2018-10-11T23:06:05.723Z,19.60
2018-10-11T23:08:34.987Z,19.80
2018-10-11T23:11:04.385Z,19.30
2018-10-11T23:13:33.719Z,19.60
2018-10-11T23:16:03.097Z,20.50
2018-10-11T23:18:32.602Z,20.63
2018-10-11T23:21:02.049Z,20.70
2018-10-11T23:23:32.055Z,20.63
2018-10-11T23:26:01.989Z,21.83
2018-10-11T23:28:31.220Z,20.70
2018-10-11T23:31:00.436Z,22.33
2018-10-11T23:33:29.653Z,20.70
2018-10-11T23:35:58.879Z,20.63
2018-10-11T23:38:28.101Z,20.30
2018-10-11T23:40:57.322Z,20.17
2018-10-11T23:43:26.560Z,19.93
2018-10-11T23:45:55.775Z,20.10
2018-10-11T23:48:24.989Z,19.07
2018-10-11T23:50:54.514Z,20.57
2018-10-11T23:53:24.452Z,20.20
2018-10-11T23:55:53.669Z,20.53
2018-10-11T23:58:23.031Z,19.33
